sensor_id;sensor_type;location;lat;lon;timestamp;pressure;altitude;pressure_sealevel;temperature;humidity
28630;BME280;15817;42.130;24.762;2022-12-18T00:01:53;100481.47;;;9.34;100.00
28630;BME280;15817;42.130;24.762;2022-12-18T00:04:23;100481.47;;;9.34;100.00
28630;BME280;15817;42.130;24.762;2022-12-18T00:06:50;100466.38;;;9.28;100.00
28630;BME280;15817;42.130;24.762;2022-12-18T00:09:19;100485.00;;;9.33;100.00
28630;BME280;15817;42.130;24.762;2022-12-18T00:11:48;100482.28;;;9.27;100.00
28630;BME280;15817;42.130;24.762;2022-12-18T00:14:14;100502.69;;;9.32;100.00
28630;BME280;15817;42.130;24.762;2022-12-18T00:16:43;100493.75;;;9.24;100.00
28630;BME280;15817;42.130;24.762;2022-12-18T00:19:12;100505.25;;;9.22;100.00
28630;BME280;15817;42.130;24.762;2022-12-18T00:21:38;100519.38;;;9.21;100.00
28630;BME280;15817;42.130;24.762;2022-12-18T00:24:08;100530.06;;;9.27;100.00
28630;BME280;15817;42.130;24.762;2022-12-18T00:26:35;100521.16;;;9.20;100.00
28630;BME280;15817;42.130;24.762;2022-12-18T00:29:09;100531.81;;;9.26;100.00
28630;BME280;15817;42.130;24.762;2022-12-18T00:31:43;100532.66;;;9.24;100.00
28630;BME280;15817;42.130;24.762;2022-12-18T00:34:24;100542.44;;;9.26;100.00
28630;BME280;15817;42.130;24.762;2022-12-18T00:37:00;100542.41;;;9.22;100.00
28630;BME280;15817;42.130;24.762;2022-12-18T00:39:28;100553.91;;;9.21;100.00
28630;BME280;15817;42.130;24.762;2022-12-18T00:41:54;100548.53;;;9.16;100.00
28630;BME280;15817;42.130;24.762;2022-12-18T00:44:51;100561.88;;;9.22;100.00
28630;BME280;15817;42.130;24.762;2022-12-18T00:47:22;100551.19;;;9.16;100.00
28630;BME280;15817;42.130;24.762;2022-12-18T00:49:50;100574.25;;;9.22;100.00
28630;BME280;15817;42.130;24.762;2022-12-18T00:52:18;100576.00;;;9.20;100.00
28630;BME280;15817;42.130;24.762;2022-12-18T00:54:47;100566.16;;;9.13;100.00
28630;BME280;15817;42.130;24.762;2022-12-18T00:57:17;100561.75;;;9.10;100.00
28630;BME280;15817;42.130;24.762;2022-12-18T00:59:43;100564.38;;;9.12;100.00
28630;BME280;15817;42.130;24.762;2022-12-18T01:02:10;100558.09;;;9.03;100.00
28630;BME280;15817;42.130;24.762;2022-12-18T01:04:36;100570.56;;;9.09;100.00
28630;BME280;15817;42.130;24.762;2022-12-18T01:07:02;100565.25;;;9.07;100.00
28630;BME280;15817;42.130;24.762;2022-12-18T01:09:30;100575.84;;;9.06;100.00
28630;BME280;15817;42.130;24.762;2022-12-18T01:11:59;100553.63;;;8.98;100.00
28630;BME280;15817;42.130;24.762;2022-12-18T01:14:29;100559.81;;;9.00;100.00
28630;BME280;15817;42.130;24.762;2022-12-18T01:16:55;100558.09;;;9.02;100.00
28630;BME280;15817;42.130;24.762;2022-12-18T01:19:21;100552.81;;;9.05;100.00
28630;BME280;15817;42.130;24.762;2022-12-18T01:21:47;100546.59;;;9.03;100.00
28630;BME280;15817;42.130;24.762;2022-12-18T01:24:13;100551.06;;;9.05;100.00
28630;BME280;15817;42.130;24.762;2022-12-18T01:26:42;100559.06;;;9.12;100.00
28630;BME280;15817;42.130;24.762;2022-12-18T01:29:13;100554.59;;;9.06;100.00
28630;BME280;15817;42.130;24.762;2022-12-18T01:31:39;100550.19;;;9.06;100.00
28630;BME280;15817;42.130;24.762;2022-12-18T01:34:05;100543.09;;;9.05;100.00
28630;BME280;15817;42.130;24.762;2022-12-18T01:36:35;100556.41;;;9.12;100.00
28630;BME280;15817;42.130;24.762;2022-12-18T01:39:05;100544.00;;;9.06;100.00
28630;BME280;15817;42.130;24.762;2022-12-18T01:41:33;100553.78;;;9.12;100.00
28630;BME280;15817;42.130;24.762;2022-12-18T01:47:41;100562.69;;;9.17;100.00
28630;BME280;15817;42.130;24.762;2022-12-18T01:50:15;100548.47;;;9.12;100.00
28630;BME280;15817;42.130;24.762;2022-12-18T01:52:49;100540.44;;;9.05;100.00
28630;BME280;15817;42.130;24.762;2022-12-18T01:55:21;100555.56;;;9.11;100.00
28630;BME280;15817;42.130;24.762;2022-12-18T01:57:49;100547.53;;;9.06;100.00
28630;BME280;15817;42.130;24.762;2022-12-18T02:00:20;100548.44;;;9.08;100.00
28630;BME280;15817;42.130;24.762;2022-12-18T02:02:47;100546.72;;;9.11;100.00
28630;BME280;15817;42.130;24.762;2022-12-18T02:05:20;100576.91;;;9.25;100.00
28630;BME280;15817;42.130;24.762;2022-12-18T02:10:46;100563.63;;;9.20;100.00
28630;BME280;15817;42.130;24.762;2022-12-18T02:16:39;100592.06;;;9.35;100.00
28630;BME280;15817;42.130;24.762;2022-12-18T02:22:16;100592.09;;;9.38;100.00
28630;BME280;15817;42.130;24.762;2022-12-18T02:27:34;100582.34;;;9.35;100.00
28630;BME280;15817;42.130;24.762;2022-12-18T02:30:06;100586.84;;;9.42;100.00
28630;BME280;15817;42.130;24.762;2022-12-18T02:32:46;100578.88;;;9.41;100.00
28630;BME280;15817;42.130;24.762;2022-12-18T02:35:31;100586.91;;;9.49;100.00
28630;BME280;15817;42.130;24.762;2022-12-18T02:41:06;100568.28;;;9.42;100.00
28630;BME280;15817;42.130;24.762;2022-12-18T02:43:34;100570.00;;;9.40;100.00
28630;BME280;15817;42.130;24.762;2022-12-18T02:46:25;100570.91;;;9.41;100.00
28630;BME280;15817;42.130;24.762;2022-12-18T02:55:17;100580.75;;;9.51;100.00
28630;BME280;15817;42.130;24.762;2022-12-18T03:03:32;100585.09;;;9.43;100.00
28630;BME280;15817;42.130;24.762;2022-12-18T03:06:10;100592.13;;;9.39;100.00
28630;BME280;15817;42.130;24.762;2022-12-18T03:08:45;100580.56;;;9.36;100.00
28630;BME280;15817;42.130;24.762;2022-12-18T03:11:14;100588.56;;;9.39;100.00
28630;BME280;15817;42.130;24.762;2022-12-18T03:13:46;100584.97;;;9.32;100.00
28630;BME280;15817;42.130;24.762;2022-12-18T03:16:26;100579.66;;;9.31;100.00
28630;BME280;15817;42.130;24.762;2022-12-18T03:19:15;100588.50;;;9.31;100.00
28630;BME280;15817;42.130;24.762;2022-12-18T03:21:45;100591.19;;;9.33;100.00
28630;BME280;15817;42.130;24.762;2022-12-18T03:24:18;100608.06;;;9.41;100.00
28630;BME280;15817;42.130;24.762;2022-12-18T03:26:57;100597.41;;;9.38;100.00
28630;BME280;15817;42.130;24.762;2022-12-18T03:29:34;100603.56;;;9.35;100.00
28630;BME280;15817;42.130;24.762;2022-12-18T03:32:09;100604.50;;;9.37;100.00
28630;BME280;15817;42.130;24.762;2022-12-18T03:34:47;100608.88;;;9.35;100.00
28630;BME280;15817;42.130;24.762;2022-12-18T03:37:23;100610.72;;;9.39;100.00
28630;BME280;15817;42.130;24.762;2022-12-18T03:43:18;100614.22;;;9.37;100.00
28630;BME280;15817;42.130;24.762;2022-12-18T03:46:36;100627.50;;;9.38;100.00
28630;BME280;15817;42.130;24.762;2022-12-18T03:52:04;100644.31;;;9.37;100.00
28630;BME280;15817;42.130;24.762;2022-12-18T03:54:33;100652.28;;;9.37;100.00
28630;BME280;15817;42.130;24.762;2022-12-18T03:57:21;100646.97;;;9.34;100.00
28630;BME280;15817;42.130;24.762;2022-12-18T03:59:57;100654.91;;;9.36;100.00
28630;BME280;15817;42.130;24.762;2022-12-18T04:02:55;100649.63;;;9.34;100.00
28630;BME280;15817;42.130;24.762;2022-12-18T04:05:41;100660.25;;;9.37;100.00
28630;BME280;15817;42.130;24.762;2022-12-18T04:11:43;100657.59;;;9.37;100.00
28630;BME280;15817;42.130;24.762;2022-12-18T04:14:21;100660.25;;;9.37;100.00
28630;BME280;15817;42.130;24.762;2022-12-18T04:16:52;100669.13;;;9.41;100.00
28630;BME280;15817;42.130;24.762;2022-12-18T04:19:28;100659.38;;;9.40;100.00
28630;BME280;15817;42.130;24.762;2022-12-18T04:22:03;100655.03;;;9.43;100.00
28630;BME280;15817;42.130;24.762;2022-12-18T04:24:36;100661.22;;;9.44;100.00
28630;BME280;15817;42.130;24.762;2022-12-18T04:27:08;100668.31;;;9.48;100.00
28630;BME280;15817;42.130;24.762;2022-12-18T04:29:41;100670.97;;;9.45;100.00
28630;BME280;15817;42.130;24.762;2022-12-18T04:32:08;100665.66;;;9.48;100.00
28630;BME280;15817;42.130;24.762;2022-12-18T04:34:35;100663.88;;;9.44;100.00
28630;BME280;15817;42.130;24.762;2022-12-18T04:37:01;100677.16;;;9.44;100.00
28630;BME280;15817;42.130;24.762;2022-12-18T04:39:28;100678.03;;;9.44;100.00
28630;BME280;15817;42.130;24.762;2022-12-18T04:41:59;100678.88;;;9.42;100.00
28630;BME280;15817;42.130;24.762;2022-12-18T04:44:28;100674.44;;;9.39;100.00
28630;BME280;15817;42.130;24.762;2022-12-18T04:46:54;100685.94;;;9.40;100.00
28630;BME280;15817;42.130;24.762;2022-12-18T04:49:19;100703.72;;;9.47;100.00
28630;BME280;15817;42.130;24.762;2022-12-18T04:51:54;100692.06;;;9.36;100.00
28630;BME280;15817;42.130;24.762;2022-12-18T04:54:20;100686.75;;;9.33;100.00
28630;BME280;15817;42.130;24.762;2022-12-18T04:56:46;100717.81;;;9.41;100.00
28630;BME280;15817;42.130;24.762;2022-12-18T04:59:14;100713.28;;;9.31;100.00
28630;BME280;15817;42.130;24.762;2022-12-18T05:01:40;100715.97;;;9.33;100.00
28630;BME280;15817;42.130;24.762;2022-12-18T05:04:05;100719.44;;;9.29;100.00
28630;BME280;15817;42.130;24.762;2022-12-18T05:06:31;100718.50;;;9.27;100.00
28630;BME280;15817;42.130;24.762;2022-12-18T05:08:58;100725.56;;;9.25;100.00
28630;BME280;15817;42.130;24.762;2022-12-18T05:11:26;100737.13;;;9.28;100.00
28630;BME280;15817;42.130;24.762;2022-12-18T05:13:52;100738.91;;;9.29;100.00
28630;BME280;15817;42.130;24.762;2022-12-18T05:16:18;100725.53;;;9.22;100.00
28630;BME280;15817;42.130;24.762;2022-12-18T05:18:44;100734.38;;;9.21;100.00
28630;BME280;15817;42.130;24.762;2022-12-18T05:21:10;100750.41;;;9.28;100.00
28630;BME280;15817;42.130;24.762;2022-12-18T05:23:39;100754.78;;;9.26;100.00
28630;BME280;15817;42.130;24.762;2022-12-18T05:26:06;100745.88;;;9.21;100.00
28630;BME280;15817;42.130;24.762;2022-12-18T05:28:34;100769.91;;;9.30;100.00
28630;BME280;15817;42.130;24.762;2022-12-18T05:31:02;100777.84;;;9.29;100.00
28630;BME280;15817;42.130;24.762;2022-12-18T05:33:33;100775.09;;;9.24;100.00
28630;BME280;15817;42.130;24.762;2022-12-18T05:36:01;100786.69;;;9.29;100.00
28630;BME280;15817;42.130;24.762;2022-12-18T05:38:28;100784.03;;;9.29;100.00
28630;BME280;15817;42.130;24.762;2022-12-18T05:40:55;100780.41;;;9.24;100.00
28630;BME280;15817;42.130;24.762;2022-12-18T05:43:22;100792.88;;;9.28;100.00
28630;BME280;15817;42.130;24.762;2022-12-18T05:45:52;100800.88;;;9.31;100.00
28630;BME280;15817;42.130;24.762;2022-12-18T05:48:25;100791.06;;;9.26;100.00
28630;BME280;15817;42.130;24.762;2022-12-18T05:50:51;100810.63;;;9.32;100.00
28630;BME280;15817;42.130;24.762;2022-12-18T05:53:19;100808.81;;;9.30;100.00
28630;BME280;15817;42.130;24.762;2022-12-18T05:55:46;100806.97;;;9.26;100.00
28630;BME280;15817;42.130;24.762;2022-12-18T05:58:17;100823.91;;;9.32;100.00
28630;BME280;15817;42.130;24.762;2022-12-18T06:00:46;100808.75;;;9.25;100.00
28630;BME280;15817;42.130;24.762;2022-12-18T06:03:13;100824.78;;;9.31;100.00
28630;BME280;15817;42.130;24.762;2022-12-18T06:05:41;100815.84;;;9.26;100.00
28630;BME280;15817;42.130;24.762;2022-12-18T06:08:07;100826.56;;;9.32;100.00
28630;BME280;15817;42.130;24.762;2022-12-18T06:10:39;100818.50;;;9.26;100.00
28630;BME280;15817;42.130;24.762;2022-12-18T06:13:12;100824.72;;;9.28;100.00
28630;BME280;15817;42.130;24.762;2022-12-18T06:15:37;100818.50;;;9.26;100.00
28630;BME280;15817;42.130;24.762;2022-12-18T06:18:04;100830.94;;;9.29;100.00
28630;BME280;15817;42.130;24.762;2022-12-18T06:20:29;100838.97;;;9.33;100.00
28630;BME280;15817;42.130;24.762;2022-12-18T06:23:09;100850.53;;;9.38;100.00
28630;BME280;15817;42.130;24.762;2022-12-18T06:25:47;100848.75;;;9.37;100.00
28630;BME280;15817;42.130;24.762;2022-12-18T06:28:13;100846.03;;;9.33;100.00
28630;BME280;15817;42.130;24.762;2022-12-18T06:30:39;100846.00;;;9.31;100.00
28630;BME280;15817;42.130;24.762;2022-12-18T06:33:05;100854.88;;;9.32;100.00
28630;BME280;15817;42.130;24.762;2022-12-18T06:35:38;100872.69;;;9.40;100.00
28630;BME280;15817;42.130;24.762;2022-12-18T06:38:13;100878.03;;;9.42;100.00
28630;BME280;15817;42.130;24.762;2022-12-18T06:41:20;100871.72;;;9.35;100.00
28630;BME280;15817;42.130;24.762;2022-12-18T06:43:46;100871.72;;;9.35;100.00
28630;BME280;15817;42.130;24.762;2022-12-18T06:46:15;100879.75;;;9.40;100.00
28630;BME280;15817;42.130;24.762;2022-12-18T06:48:41;100895.78;;;9.44;100.00
28630;BME280;15817;42.130;24.762;2022-12-18T06:51:07;100882.41;;;9.38;100.00
28630;BME280;15817;42.130;24.762;2022-12-18T06:53:33;100889.47;;;9.38;100.00
28630;BME280;15817;42.130;24.762;2022-12-18T06:56:03;100903.75;;;9.46;100.00
28630;BME280;15817;42.130;24.762;2022-12-18T06:58:32;100897.50;;;9.42;100.00
28630;BME280;15817;42.130;24.762;2022-12-18T07:01:06;100909.97;;;9.48;100.00
28630;BME280;15817;42.130;24.762;2022-12-18T07:03:32;100906.41;;;9.44;100.00
28630;BME280;15817;42.130;24.762;2022-12-18T07:06:12;100901.09;;;9.44;100.00
28630;BME280;15817;42.130;24.762;2022-12-18T07:08:45;100911.75;;;9.49;100.00
28630;BME280;15817;42.130;24.762;2022-12-18T07:11:11;100900.13;;;9.39;100.00
28630;BME280;15817;42.130;24.762;2022-12-18T07:13:43;100910.81;;;9.44;100.00
28630;BME280;15817;42.130;24.762;2022-12-18T07:16:17;100908.06;;;9.38;100.00
28630;BME280;15817;42.130;24.762;2022-12-18T07:18:43;100913.41;;;9.41;100.00
28630;BME280;15817;42.130;24.762;2022-12-18T07:21:13;100917.84;;;9.40;100.00
28630;BME280;15817;42.130;24.762;2022-12-18T07:23:39;100920.53;;;9.43;100.00
28630;BME280;15817;42.130;24.762;2022-12-18T07:26:14;100918.72;;;9.41;100.00
28630;BME280;15817;42.130;24.762;2022-12-18T07:28:41;100927.53;;;9.38;100.00
28630;BME280;15817;42.130;24.762;2022-12-18T07:31:10;100931.09;;;9.39;100.00
28630;BME280;15817;42.130;24.762;2022-12-18T07:33:41;100933.72;;;9.37;100.00
28630;BME280;15817;42.130;24.762;2022-12-18T07:36:15;100933.75;;;9.40;100.00
28630;BME280;15817;42.130;24.762;2022-12-18T07:38:41;100933.72;;;9.39;100.00
28630;BME280;15817;42.130;24.762;2022-12-18T07:41:22;100941.75;;;9.42;100.00
28630;BME280;15817;42.130;24.762;2022-12-18T07:43:48;100941.75;;;9.42;100.00
28630;BME280;15817;42.130;24.762;2022-12-18T07:46:17;100951.59;;;9.49;100.00
28630;BME280;15817;42.130;24.762;2022-12-18T07:48:46;100947.97;;;9.42;100.00
28630;BME280;15817;42.130;24.762;2022-12-18T07:51:21;100947.06;;;9.42;100.00
28630;BME280;15817;42.130;24.762;2022-12-18T07:53:47;100953.25;;;9.41;100.00
28630;BME280;15817;42.130;24.762;2022-12-18T07:56:13;100968.34;;;9.43;100.00
28630;BME280;15817;42.130;24.762;2022-12-18T07:58:42;100959.38;;;9.38;100.00
28630;BME280;15817;42.130;24.762;2022-12-18T08:01:12;100962.94;;;9.39;100.00
28630;BME280;15817;42.130;24.762;2022-12-18T08:03:50;100963.81;;;9.38;100.00
28630;BME280;15817;42.130;24.762;2022-12-18T08:06:19;100975.38;;;9.41;100.00
28630;BME280;15817;42.130;24.762;2022-12-18T08:08:55;100978.06;;;9.43;100.00
28630;BME280;15817;42.130;24.762;2022-12-18T08:11:26;100977.16;;;9.42;100.00
28630;BME280;15817;42.130;24.762;2022-12-18T08:13:56;100983.38;;;9.43;100.00
28630;BME280;15817;42.130;24.762;2022-12-18T08:16:31;100994.09;;;9.49;100.00
28630;BME280;15817;42.130;24.762;2022-12-18T08:18:59;101000.28;;;9.50;100.00
28630;BME280;15817;42.130;24.762;2022-12-18T08:21:28;100992.31;;;9.50;100.00
28630;BME280;15817;42.130;24.762;2022-12-18T08:23:58;101000.31;;;9.51;100.00
28630;BME280;15817;42.130;24.762;2022-12-18T08:26:26;101001.16;;;9.49;100.00
28630;BME280;15817;42.130;24.762;2022-12-18T08:28:59;101011.03;;;9.56;100.00
28630;BME280;15817;42.130;24.762;2022-12-18T08:31:29;101015.47;;;9.57;100.00
28630;BME280;15817;42.130;24.762;2022-12-18T08:34:05;101005.75;;;9.57;100.00
28630;BME280;15817;42.130;24.762;2022-12-18T08:36:33;101011.03;;;9.56;100.00
28630;BME280;15817;42.130;24.762;2022-12-18T08:39:29;101000.34;;;9.53;100.00
28630;BME280;15817;42.130;24.762;2022-12-18T08:41:55;101012.88;;;9.61;100.00
28630;BME280;15817;42.130;24.762;2022-12-18T08:44:40;100998.66;;;9.59;100.00
28630;BME280;15817;42.130;24.762;2022-12-18T08:47:09;101003.19;;;9.63;100.00
28630;BME280;15817;42.130;24.762;2022-12-18T08:49:40;100996.03;;;9.59;100.00
28630;BME280;15817;42.130;24.762;2022-12-18T08:52:06;100996.00;;;9.56;100.00
28630;BME280;15817;42.130;24.762;2022-12-18T08:54:35;100985.38;;;9.58;100.00
28630;BME280;15817;42.130;24.762;2022-12-18T08:57:04;100984.53;;;9.60;100.00
28630;BME280;15817;42.130;24.762;2022-12-18T08:59:38;100982.84;;;9.65;100.00
28630;BME280;15817;42.130;24.762;2022-12-18T09:02:26;100981.03;;;9.63;100.00
28630;BME280;15817;42.130;24.762;2022-12-18T09:04:55;100973.13;;;9.66;100.00
28630;BME280;15817;42.130;24.762;2022-12-18T09:07:26;100981.16;;;9.69;100.00
28630;BME280;15817;42.130;24.762;2022-12-18T09:09:54;100978.50;;;9.69;100.00
28630;BME280;15817;42.130;24.762;2022-12-18T09:17:42;101004.34;;;9.80;100.00
28630;BME280;15817;42.130;24.762;2022-12-18T09:20:09;100990.06;;;9.74;100.00
28630;BME280;15817;42.130;24.762;2022-12-18T09:22:41;100992.81;;;9.78;100.00
28630;BME280;15817;42.130;24.762;2022-12-18T09:25:12;100990.00;;;9.71;100.00
28630;BME280;15817;42.130;24.762;2022-12-18T09:27:38;101005.19;;;9.78;100.00
28630;BME280;15817;42.130;24.762;2022-12-18T09:30:05;100991.78;;;9.72;100.00
28630;BME280;15817;42.130;24.762;2022-12-18T09:32:31;100986.44;;;9.70;100.00
28630;BME280;15817;42.130;24.762;2022-12-18T09:34:57;100984.69;;;9.71;100.00
28630;BME280;15817;42.130;24.762;2022-12-18T09:37:27;100997.16;;;9.75;100.00
28630;BME280;15817;42.130;24.762;2022-12-18T09:39:53;100992.78;;;9.77;100.00
28630;BME280;15817;42.130;24.762;2022-12-18T09:42:32;100985.66;;;9.76;100.00
28630;BME280;15817;42.130;24.762;2022-12-18T09:45:47;100982.16;;;9.77;100.00
28630;BME280;15817;42.130;24.762;2022-12-18T09:48:23;100983.97;;;9.82;100.00
28630;BME280;15817;42.130;24.762;2022-12-18T09:51:02;100973.34;;;9.79;100.00
28630;BME280;15817;42.130;24.762;2022-12-18T09:54:10;100980.41;;;9.79;100.00
28630;BME280;15817;42.130;24.762;2022-12-18T09:56:51;100998.19;;;9.85;100.00
28630;BME280;15817;42.130;24.762;2022-12-18T09:59:24;100978.63;;;9.78;100.00
28630;BME280;15817;42.130;24.762;2022-12-18T10:02:17;100996.41;;;9.84;100.00
28630;BME280;15817;42.130;24.762;2022-12-18T10:15:32;101004.38;;;9.84;100.00
28630;BME280;15817;42.130;24.762;2022-12-18T10:18:30;100993.78;;;9.85;100.00
28630;BME280;15817;42.130;24.762;2022-12-18T10:21:13;100991.09;;;9.84;100.00
28630;BME280;15817;42.130;24.762;2022-12-18T10:23:56;100988.38;;;9.79;100.00
28630;BME280;15817;42.130;24.762;2022-12-18T10:26:25;100988.41;;;9.80;100.00
28630;BME280;15817;42.130;24.762;2022-12-18T10:28:53;100997.31;;;9.86;100.00
28630;BME280;15817;42.130;24.762;2022-12-18T10:31:22;100991.06;;;9.82;100.00
28630;BME280;15817;42.130;24.762;2022-12-18T10:33:53;100990.25;;;9.86;100.00
28630;BME280;15817;42.130;24.762;2022-12-18T10:36:33;100992.84;;;9.83;100.00
28630;BME280;15817;42.130;24.762;2022-12-18T10:39:22;100997.38;;;9.89;100.00
28630;BME280;15817;42.130;24.762;2022-12-18T10:41:48;101006.28;;;9.91;100.00
28630;BME280;15817;42.130;24.762;2022-12-18T10:44:22;101001.75;;;9.85;100.00
28630;BME280;15817;42.130;24.762;2022-12-18T10:47:03;101006.22;;;9.88;100.00
28630;BME280;15817;42.130;24.762;2022-12-18T10:49:33;101000.84;;;9.85;100.00
28630;BME280;15817;42.130;24.762;2022-12-18T10:54:51;101027.47;;;9.88;100.00
28630;BME280;15817;42.130;24.762;2022-12-18T10:57:34;101033.63;;;9.85;100.00
28630;BME280;15817;42.130;24.762;2022-12-18T11:00:30;101028.25;;;9.82;100.00
28630;BME280;15817;42.130;24.762;2022-12-18T11:03:07;101028.19;;;9.76;100.00
28630;BME280;15817;42.130;24.762;2022-12-18T11:06:02;101031.63;;;9.70;100.00
28630;BME280;15817;42.130;24.762;2022-12-18T11:08:36;101052.06;;;9.74;100.00
28630;BME280;15817;42.130;24.762;2022-12-18T11:11:02;101053.00;;;9.76;100.00
28630;BME280;15817;42.130;24.762;2022-12-18T11:13:35;101050.22;;;9.70;100.00
28630;BME280;15817;42.130;24.762;2022-12-18T11:16:03;101034.13;;;9.61;100.00
28630;BME280;15817;42.130;24.762;2022-12-18T11:18:35;101037.63;;;9.59;100.00
28630;BME280;15817;42.130;24.762;2022-12-18T11:21:11;101050.00;;;9.57;100.00
28630;BME280;15817;42.130;24.762;2022-12-18T11:26:20;101061.41;;;9.51;100.00
28630;BME280;15817;42.130;24.762;2022-12-18T11:29:23;101059.63;;;9.50;100.00
28630;BME280;15817;42.130;24.762;2022-12-18T11:34:50;101050.69;;;9.45;100.00
28630;BME280;15817;42.130;24.762;2022-12-18T11:37:20;101048.00;;;9.43;100.00
28630;BME280;15817;42.130;24.762;2022-12-18T11:39:54;101050.66;;;9.43;100.00
28630;BME280;15817;42.130;24.762;2022-12-18T11:42:52;101059.69;;;9.53;100.00
28630;BME280;15817;42.130;24.762;2022-12-18T11:45:34;101063.16;;;9.51;100.00
28630;BME280;15817;42.130;24.762;2022-12-18T11:48:38;101044.47;;;9.44;100.00
28630;BME280;15817;42.130;24.762;2022-12-18T11:51:14;101048.97;;;9.49;100.00
28630;BME280;15817;42.130;24.762;2022-12-18T11:53:46;101060.56;;;9.54;100.00
28630;BME280;15817;42.130;24.762;2022-12-18T12:01:48;101058.91;;;9.60;100.00
28630;BME280;15817;42.130;24.762;2022-12-18T12:10:13;101066.09;;;9.66;100.00
28630;BME280;15817;42.130;24.762;2022-12-18T12:13:09;101068.75;;;9.66;100.00
28630;BME280;15817;42.130;24.762;2022-12-18T12:16:16;101059.03;;;9.66;100.00
28630;BME280;15817;42.130;24.762;2022-12-18T12:19:03;101066.09;;;9.66;100.00
28630;BME280;15817;42.130;24.762;2022-12-18T12:21:42;101062.50;;;9.64;100.00
28630;BME280;15817;42.130;24.762;2022-12-18T12:29:39;101058.84;;;9.56;100.00
28630;BME280;15817;42.130;24.762;2022-12-18T12:38:19;101074.91;;;9.63;100.00
28630;BME280;15817;42.130;24.762;2022-12-18T12:40:59;101081.88;;;9.57;100.00
28630;BME280;15817;42.130;24.762;2022-12-18T12:43:35;101090.78;;;9.60;100.00
28630;BME280;15817;42.130;24.762;2022-12-18T12:46:16;101082.66;;;9.51;100.00
28630;BME280;15817;42.130;24.762;2022-12-18T12:49:09;101096.97;;;9.61;100.00
28630;BME280;15817;42.130;24.762;2022-12-18T12:51:46;101090.63;;;9.51;100.00
28630;BME280;15817;42.130;24.762;2022-12-18T12:54:21;101105.78;;;9.57;100.00
28630;BME280;15817;42.130;24.762;2022-12-18T12:57:31;101110.19;;;9.56;100.00
28630;BME280;15817;42.130;24.762;2022-12-18T13:00:18;101110.91;;;9.48;100.00
28630;BME280;15817;42.130;24.762;2022-12-18T13:03:34;101119.81;;;9.50;100.00
28630;BME280;15817;42.130;24.762;2022-12-18T13:06:11;101117.13;;;9.48;100.00
28630;BME280;15817;42.130;24.762;2022-12-18T13:08:57;101129.53;;;9.49;100.00
28630;BME280;15817;42.130;24.762;2022-12-18T13:19:01;101135.56;;;9.40;100.00
28630;BME280;15817;42.130;24.762;2022-12-18T13:21:30;101139.09;;;9.39;100.00
28630;BME280;15817;42.130;24.762;2022-12-18T13:24:27;101142.66;;;9.41;100.00
28630;BME280;15817;42.130;24.762;2022-12-18T13:38:25;101153.22;;;9.38;100.00
28630;BME280;15817;42.130;24.762;2022-12-18T13:41:04;101167.53;;;9.47;100.00
28630;BME280;15817;42.130;24.762;2022-12-18T13:44:12;101154.09;;;9.37;100.00
28630;BME280;15817;42.130;24.762;2022-12-18T13:46:46;101175.50;;;9.47;100.00
28630;BME280;15817;42.130;24.762;2022-12-18T13:49:24;101172.72;;;9.39;100.00
28630;BME280;15817;42.130;24.762;2022-12-18T13:52:27;101173.53;;;9.36;100.00
28630;BME280;15817;42.130;24.762;2022-12-18T13:55:15;101178.94;;;9.41;100.00
28630;BME280;15817;42.130;24.762;2022-12-18T13:57:47;101167.16;;;9.27;100.00
28630;BME280;15817;42.130;24.762;2022-12-18T14:00:23;101194.72;;;9.32;100.00
28630;BME280;15817;42.130;24.762;2022-12-18T14:02:51;101201.75;;;9.30;100.00
28630;BME280;15817;42.130;24.762;2022-12-18T14:05:44;101190.03;;;9.20;100.00
28630;BME280;15817;42.130;24.762;2022-12-18T14:08:16;101196.09;;;9.15;100.00
28630;BME280;15817;42.130;24.762;2022-12-18T14:10:57;101205.06;;;9.20;100.00
28630;BME280;15817;42.130;24.762;2022-12-18T14:13:35;101201.41;;;9.15;100.00
28630;BME280;15817;42.130;24.762;2022-12-18T14:16:16;101214.78;;;9.19;100.00
28630;BME280;15817;42.130;24.762;2022-12-18T14:19:01;101226.22;;;9.17;100.00
28630;BME280;15817;42.130;24.762;2022-12-18T14:21:30;101211.94;;;9.10;100.00
28630;BME280;15817;42.130;24.762;2022-12-18T14:24:20;101218.00;;;9.04;100.00
28630;BME280;15817;42.130;24.762;2022-12-18T14:26:49;101225.03;;;9.02;100.00
28630;BME280;15817;42.130;24.762;2022-12-18T14:29:51;101227.63;;;8.99;100.00
28630;BME280;15817;42.130;24.762;2022-12-18T14:32:23;101241.03;;;9.05;100.00
28630;BME280;15817;42.130;24.762;2022-12-18T14:34:53;101248.16;;;9.08;100.00
28630;BME280;15817;42.130;24.762;2022-12-18T14:37:26;101237.28;;;8.96;100.00
28630;BME280;15817;42.130;24.762;2022-12-18T14:40:15;101239.13;;;8.98;100.00
28630;BME280;15817;42.130;24.762;2022-12-18T14:42:54;101253.28;;;8.99;100.00
28630;BME280;15817;42.130;24.762;2022-12-18T14:45:36;101259.47;;;8.99;100.00
28630;BME280;15817;42.130;24.762;2022-12-18T14:48:21;101240.72;;;8.92;100.00
28630;BME280;15817;42.130;24.762;2022-12-18T14:51:01;101246.88;;;8.91;100.00
28630;BME280;15817;42.130;24.762;2022-12-18T14:53:40;101257.69;;;8.98;100.00
28630;BME280;15817;42.130;24.762;2022-12-18T14:56:17;101250.50;;;8.94;100.00
28630;BME280;15817;42.130;24.762;2022-12-18T14:58:53;101252.22;;;8.92;100.00
28630;BME280;15817;42.130;24.762;2022-12-18T15:01:51;101254.78;;;8.89;100.00
28630;BME280;15817;42.130;24.762;2022-12-18T15:08:44;101272.63;;;8.95;100.00